Time;durP1;ratioP1;P1;durP2;ratioP2;P2;SDS_P1;SDS_P2;PMS_P1;PMS_P2;Temp;Humidity;BMP_temperature;BMP_pressure;BME280_temperature;BME280_humidity;BME280_pressure;Samples;Min_cycle;Max_cycle;Signal;HPM_P1;HPM_P2
2022/07/19 00:00:09;;;;;;;;;;;;;;;22.31;79.59;97705.27;596286;238;67029;-69
2022/07/19 00:02:38;;;;;;;;;;;;;;;22.32;79.55;97706.09;596384;238;64336;-69
2022/07/19 00:05:06;;;;;;;;;;;;;;;22.32;79.60;97703.42;596309;238;63799;-69
2022/07/19 00:07:34;;;;;;;;;;;;;;;22.32;79.58;97706.09;596343;238;65170;-69
2022/07/19 00:10:02;;;;;;;;;;;;;;;22.33;79.53;97707.70;596340;238;64795;-69
2022/07/19 00:12:30;;;;;;;;;;;;;;;22.31;79.56;97702.59;596315;238;65176;-69
2022/07/19 00:14:57;;;;;;;;;;;;;;;22.31;79.62;97697.23;596366;238;67206;-69
2022/07/19 00:17:25;;;;;;;;;;;;;;;22.31;79.62;97691.08;596310;238;64713;-69
2022/07/19 00:19:52;;;;;;;;;;;;;;;22.32;79.63;97692.70;596338;238;62868;-69
2022/07/19 00:22:20;;;;;;;;;;;;;;;22.31;79.67;97694.55;596371;238;67117;-69
2022/07/19 00:24:48;;;;;;;;;;;;;;;22.30;79.70;97695.64;596322;238;66690;-69
2022/07/19 00:27:15;;;;;;;;;;;;;;;22.31;79.77;97691.87;596337;238;62762;-69
2022/07/19 00:29:43;;;;;;;;;;;;;;;22.31;79.78;97689.20;596298;238;67059;-69
2022/07/19 00:32:10;;;;;;;;;;;;;;;22.30;79.87;97679.57;596339;238;64809;-69
2022/07/19 00:34:38;;;;;;;;;;;;;;;22.31;79.94;97689.20;596331;238;62739;-69
2022/07/19 00:37:05;;;;;;;;;;;;;;;22.30;79.88;97684.92;596339;238;67133;-69
2022/07/19 00:39:33;;;;;;;;;;;;;;;22.32;79.81;97687.36;596368;238;67027;-69
2022/07/19 00:42:00;;;;;;;;;;;;;;;22.31;79.85;97675.81;596331;238;62949;-69
2022/07/19 00:44:28;;;;;;;;;;;;;;;22.32;79.86;97682.00;596312;238;64920;-69
2022/07/19 00:46:55;;;;;;;;;;;;;;;22.31;79.87;97680.37;596363;238;67497;-69
2022/07/19 00:49:23;;;;;;;;;;;;;;;22.31;79.85;97675.02;596323;238;64925;-69
2022/07/19 00:51:54;;;;;;;;;;;;;;;22.29;79.87;97672.62;596363;238;67428;-69
2022/07/19 00:54:23;;;;;;;;;;;;;;;22.32;79.83;97676.64;596254;238;66019;-69
2022/07/19 00:56:51;;;;;;;;;;;;;;;22.29;79.84;97667.27;596293;235;63041;-69
2022/07/19 00:59:19;;;;;;;;;;;;;;;22.29;79.81;97672.62;596328;238;64940;-69
2022/07/19 01:01:47;;;;;;;;;;;;;;;22.30;79.87;97674.22;596316;238;66799;-69
2022/07/19 01:04:15;;;;;;;;;;;;;;;22.31;79.99;97672.34;596329;238;66017;-69
2022/07/19 01:06:43;;;;;;;;;;;;;;;22.30;79.95;97668.06;596371;238;64796;-69
2022/07/19 01:09:10;;;;;;;;;;;;;;;22.30;79.93;97673.42;596297;238;65974;-69
2022/07/19 01:11:39;;;;;;;;;;;;;;;22.29;79.92;97672.62;596332;238;62855;-69
2022/07/19 01:14:07;;;;;;;;;;;;;;;22.31;79.94;97669.66;596336;238;66995;-69
2022/07/19 01:16:34;;;;;;;;;;;;;;;22.29;79.96;97667.27;596302;238;66811;-69
2022/07/19 01:19:02;;;;;;;;;;;;;;;22.31;80.04;97666.98;596366;238;62763;-69
2022/07/19 01:21:30;;;;;;;;;;;;;;;22.30;80.10;97652.00;596302;238;67451;-69
2022/07/19 01:23:58;;;;;;;;;;;;;;;22.29;80.13;97656.55;596321;238;66847;-69
2022/07/19 01:26:26;;;;;;;;;;;;;;;22.29;80.15;97661.91;596329;238;64864;-69
2022/07/19 01:28:53;;;;;;;;;;;;;;;22.31;80.21;97658.95;596330;238;67997;-69
2022/07/19 01:31:20;;;;;;;;;;;;;;;22.29;80.22;97655.72;596360;238;67723;-69
2022/07/19 01:33:48;;;;;;;;;;;;;;;22.31;80.28;97658.95;596289;238;65052;-69
2022/07/19 01:36:15;;;;;;;;;;;;;;;22.30;80.37;97658.15;596322;238;64868;-69
2022/07/19 01:38:43;;;;;;;;;;;;;;;22.28;80.42;97649.56;596322;238;64844;-69
2022/07/19 01:41:10;;;;;;;;;;;;;;;22.29;80.45;97656.55;596328;238;62814;-69
2022/07/19 01:43:39;;;;;;;;;;;;;;;22.29;80.54;97647.69;596317;238;64888;-69
2022/07/19 01:46:07;;;;;;;;;;;;;;;22.29;80.55;97650.37;596320;238;67679;-69
2022/07/19 01:48:35;;;;;;;;;;;;;;;22.29;80.60;97653.87;596284;238;65195;-70
2022/07/19 01:51:02;;;;;;;;;;;;;;;22.28;80.68;97649.56;596316;238;67275;-69
2022/07/19 01:53:30;;;;;;;;;;;;;;;22.29;80.69;97645.84;596316;238;66790;-69
2022/07/19 01:55:57;;;;;;;;;;;;;;;22.29;80.66;97650.37;596320;237;65136;-69
2022/07/19 01:58:25;;;;;;;;;;;;;;;22.28;80.63;97649.56;596298;238;67101;-69
2022/07/19 02:00:52;;;;;;;;;;;;;;;22.29;80.68;97659.23;596301;238;64609;-69
2022/07/19 02:03:21;;;;;;;;;;;;;;;22.28;80.76;97654.92;596196;237;43883;-69
2022/07/19 02:05:49;;;;;;;;;;;;;;;22.29;80.75;97648.52;596331;238;67224;-69
2022/07/19 02:08:16;;;;;;;;;;;;;;;22.28;80.67;97660.28;596304;238;67313;-69
2022/07/19 02:10:44;;;;;;;;;;;;;;;22.28;80.66;97660.28;596339;238;64859;-69
2022/07/19 02:13:11;;;;;;;;;;;;;;;22.28;80.66;97659.48;596328;238;64842;-69
2022/07/19 02:15:39;;;;;;;;;;;;;;;22.29;80.67;97663.75;596315;238;64824;-69
2022/07/19 02:18:06;;;;;;;;;;;;;;;22.28;80.79;97648.77;596300;238;62901;-69
2022/07/19 02:20:34;;;;;;;;;;;;;;;22.28;80.82;97651.45;596298;238;68055;-69
2022/07/19 02:23:02;;;;;;;;;;;;;;;22.27;80.77;97653.33;596374;238;67835;-69
2022/07/19 02:25:29;;;;;;;;;;;;;;;22.28;80.75;97660.28;596307;238;66043;-69
2022/07/19 02:27:57;;;;;;;;;;;;;;;22.28;80.75;97664.83;596304;238;67760;-69
2022/07/19 02:30:24;;;;;;;;;;;;;;;22.27;80.75;97653.33;596297;238;66867;-69
2022/07/19 02:32:52;;;;;;;;;;;;;;;22.28;80.79;97662.16;596291;238;64759;-69
2022/07/19 02:35:19;;;;;;;;;;;;;;;22.28;80.91;97657.60;596372;238;65330;-77
2022/07/19 02:37:47;;;;;;;;;;;;;;;22.28;80.95;97659.48;596318;238;66793;-77
2022/07/19 02:40:14;;;;;;;;;;;;;;;22.28;80.98;97662.16;596316;238;64843;-77
2022/07/19 02:42:42;;;;;;;;;;;;;;;22.27;81.00;97666.71;596269;238;67723;-77
2022/07/19 02:45:09;;;;;;;;;;;;;;;22.28;81.00;97664.83;596337;238;64748;-77
2022/07/19 02:47:38;;;;;;;;;;;;;;;22.27;81.00;97663.23;596349;238;65121;-77
2022/07/19 02:50:06;;;;;;;;;;;;;;;22.27;81.06;97664.03;596348;238;67239;-69
2022/07/19 02:52:33;;;;;;;;;;;;;;;22.27;81.10;97663.23;596330;238;67035;-69
2022/07/19 02:55:01;;;;;;;;;;;;;;;22.28;81.06;97670.19;596253;237;64885;-69
2022/07/19 02:57:29;;;;;;;;;;;;;;;22.28;81.04;97670.19;596282;238;67091;-69
2022/07/19 02:59:56;;;;;;;;;;;;;;;22.28;81.04;97668.31;596363;238;67759;-69
2022/07/19 03:02:24;;;;;;;;;;;;;;;22.28;81.09;97670.19;596303;238;64843;-69
2022/07/19 03:04:51;;;;;;;;;;;;;;;22.27;81.13;97673.95;596315;238;67106;-69
2022/07/19 03:07:18;;;;;;;;;;;;;;;22.26;81.17;97665.11;596287;238;65797;-69
2022/07/19 03:09:47;;;;;;;;;;;;;;;22.26;81.17;97662.44;596285;238;64862;-69
2022/07/19 03:12:14;;;;;;;;;;;;;;;22.27;81.16;97660.56;596378;238;67138;-69
2022/07/19 03:14:42;;;;;;;;;;;;;;;22.25;81.18;97666.16;596339;238;64283;-69
2022/07/19 03:17:09;;;;;;;;;;;;;;;22.28;81.19;97670.19;596328;238;62849;-69
2022/07/19 03:19:37;;;;;;;;;;;;;;;22.26;81.17;97673.15;596321;238;64544;-69
2022/07/19 03:22:04;;;;;;;;;;;;;;;22.27;81.16;97680.10;596309;238;64794;-69
2022/07/19 03:24:32;;;;;;;;;;;;;;;22.27;81.13;97681.98;596356;238;62751;-69
2022/07/19 03:27:00;;;;;;;;;;;;;;;22.25;81.11;97679.55;596372;238;67604;-70
2022/07/19 03:29:27;;;;;;;;;;;;;;;22.25;81.23;97682.23;596334;238;66699;-69
2022/07/19 03:31:55;;;;;;;;;;;;;;;22.26;81.27;97685.70;596308;238;66057;-69
2022/07/19 03:34:22;;;;;;;;;;;;;;;22.26;81.33;97689.21;596315;238;65532;-69
2022/07/19 03:36:50;;;;;;;;;;;;;;;22.26;81.34;97686.53;596299;238;67026;-77
2022/07/19 03:39:17;;;;;;;;;;;;;;;22.26;81.27;97691.89;596378;238;62793;-77
2022/07/19 03:41:45;;;;;;;;;;;;;;;22.26;81.27;97689.21;596278;238;65364;-77
2022/07/19 03:44:12;;;;;;;;;;;;;;;22.26;81.33;97689.21;596303;238;65677;-77
2022/07/19 03:46:40;;;;;;;;;;;;;;;22.25;81.42;97689.45;596273;238;65943;-77
2022/07/19 03:49:07;;;;;;;;;;;;;;;22.24;81.49;97685.98;596333;238;65143;-77
2022/07/19 03:51:35;;;;;;;;;;;;;;;22.25;81.50;97687.58;596342;238;64847;-77
2022/07/19 03:54:02;;;;;;;;;;;;;;;22.25;81.50;97690.27;596295;238;62735;-77
2022/07/19 03:56:30;;;;;;;;;;;;;;;22.25;81.53;97686.78;595337;238;66946;-69
2022/07/19 03:58:57;;;;;;;;;;;;;;;22.24;81.53;97694.02;594877;238;64757;-69
2022/07/19 04:01:25;;;;;;;;;;;;;;;22.25;81.53;97694.81;594857;238;64886;-69
2022/07/19 04:03:55;;;;;;;;;;;;;;;22.25;81.54;97698.30;594927;238;64627;-69
2022/07/19 04:06:22;;;;;;;;;;;;;;;22.25;81.51;97692.94;594845;238;64794;-69
2022/07/19 04:08:49;;;;;;;;;;;;;;;22.25;81.48;97698.30;594882;238;62814;-69
2022/07/19 04:11:17;;;;;;;;;;;;;;;22.24;81.42;97696.69;594817;238;67069;-69
2022/07/19 04:13:45;;;;;;;;;;;;;;;22.25;81.42;97698.30;594872;238;65589;-69
2022/07/19 04:16:12;;;;;;;;;;;;;;;22.25;81.43;97692.14;594922;238;65110;-69
2022/07/19 04:18:40;;;;;;;;;;;;;;;22.24;81.43;97696.69;594815;238;64392;-69
2022/07/19 04:21:07;;;;;;;;;;;;;;;22.25;81.38;97705.52;594881;238;66931;-69
2022/07/19 04:23:35;;;;;;;;;;;;;;;22.24;81.39;97698.57;594852;238;62745;-69
2022/07/19 04:26:02;;;;;;;;;;;;;;;22.24;81.37;97695.89;594858;238;64897;-69
2022/07/19 04:28:30;;;;;;;;;;;;;;;22.24;81.41;97694.02;594949;238;67521;-69
2022/07/19 04:30:57;;;;;;;;;;;;;;;22.24;81.39;97699.37;594702;238;65098;-69
2022/07/19 04:33:25;;;;;;;;;;;;;;;22.23;81.42;97697.73;594806;238;67243;-69
2022/07/19 04:35:53;;;;;;;;;;;;;;;22.24;81.51;97699.37;594843;238;65102;-69
2022/07/19 04:38:21;;;;;;;;;;;;;;;22.24;81.83;97699.37;594855;238;63741;-69
2022/07/19 04:40:49;;;;;;;;;;;;;;;22.23;81.83;97704.97;594817;238;67143;-69
2022/07/19 04:43:17;;;;;;;;;;;;;;;22.23;81.72;97711.12;594916;238;66834;-69
2022/07/19 04:45:45;;;;;;;;;;;;;;;22.23;81.61;97708.45;594870;238;63838;-77
2022/07/19 04:48:13;;;;;;;;;;;;;;;22.22;81.70;97709.53;594925;238;64845;-77
2022/07/19 04:50:41;;;;;;;;;;;;;;;22.23;81.80;97703.09;594886;238;66899;-77
2022/07/19 04:53:09;;;;;;;;;;;;;;;22.22;81.97;97706.85;594937;238;62907;-77
2022/07/19 04:55:39;;;;;;;;;;;;;;;22.22;82.09;97704.17;594896;238;64629;-77
2022/07/19 04:58:06;;;;;;;;;;;;;;;22.22;82.12;97714.08;594838;238;66889;-69
2022/07/19 05:00:34;;;;;;;;;;;;;;;22.21;82.19;97710.61;594874;238;62729;-70
2022/07/19 05:03:01;;;;;;;;;;;;;;;22.21;82.20;97707.93;594889;238;65092;-69
2022/07/19 05:05:29;;;;;;;;;;;;;;;22.21;82.27;97707.93;594898;238;66877;-69
2022/07/19 05:07:56;;;;;;;;;;;;;;;22.20;82.28;97711.66;594940;238;64931;-69
2022/07/19 05:10:24;;;;;;;;;;;;;;;22.20;82.34;97705.50;594891;238;67002;-69
2022/07/19 05:12:54;;;;;;;;;;;;;;;22.20;82.35;97708.98;594915;237;48040;-69
2022/07/19 05:15:21;;;;;;;;;;;;;;;22.19;82.30;97707.37;594873;238;65026;-69
2022/07/19 05:17:49;;;;;;;;;;;;;;;22.19;82.38;97710.05;594916;238;67090;-69
2022/07/19 05:20:16;;;;;;;;;;;;;;;22.19;82.31;97718.09;594938;238;67687;-69
2022/07/19 05:22:44;;;;;;;;;;;;;;;22.19;82.33;97712.73;594889;238;65282;-69
2022/07/19 05:25:12;;;;;;;;;;;;;;;22.19;82.39;97710.05;594802;238;65138;-69
2022/07/19 05:27:39;;;;;;;;;;;;;;;22.19;82.25;97712.73;594892;238;64616;-69
2022/07/19 05:30:07;;;;;;;;;;;;;;;22.18;82.44;97711.13;594864;238;64874;-77
2022/07/19 05:32:35;;;;;;;;;;;;;;;22.19;82.70;97712.73;594862;238;67298;-76
2022/07/19 05:35:02;;;;;;;;;;;;;;;22.17;82.36;97707.59;594931;238;66832;-76
2022/07/19 05:37:30;;;;;;;;;;;;;;;22.17;82.36;97715.63;594886;238;65112;-77
2022/07/19 05:39:57;;;;;;;;;;;;;;;22.17;82.66;97712.95;594812;238;68113;-76
2022/07/19 05:42:25;;;;;;;;;;;;;;;22.17;82.69;97712.16;594918;238;66489;-76
2022/07/19 05:44:53;;;;;;;;;;;;;;;22.18;82.68;97713.81;594886;238;64643;-76
2022/07/19 05:47:20;;;;;;;;;;;;;;;22.17;82.68;97712.16;594809;238;67175;-77
2022/07/19 05:49:48;;;;;;;;;;;;;;;22.17;82.64;97714.83;594821;238;67115;-77
2022/07/19 05:52:16;;;;;;;;;;;;;;;22.17;82.60;97706.80;584361;238;68662;-77
2022/07/19 05:54:43;;;;;;;;;;;;;;;22.17;82.58;97707.59;594845;238;65022;-76
2022/07/19 05:57:11;;;;;;;;;;;;;;;22.17;82.59;97714.83;596184;237;67024;-75
2022/07/19 05:59:38;;;;;;;;;;;;;;;22.16;82.58;97707.87;595270;238;64893;-73
2022/07/19 06:02:06;;;;;;;;;;;;;;;22.16;82.54;97703.32;596232;238;67042;-77
2022/07/19 06:04:33;;;;;;;;;;;;;;;22.16;82.52;97699.84;596418;233;64836;-76
2022/07/19 06:07:00;;;;;;;;;;;;;;;22.16;82.19;97707.87;603750;233;62943;-75
2022/07/19 06:09:28;;;;;;;;;;;;;;;22.14;79.39;97697.41;604247;235;65443;-75
2022/07/19 06:11:55;;;;;;;;;;;;;;;22.16;80.15;97705.20;604183;234;67755;-76
2022/07/19 06:14:23;;;;;;;;;;;;;;;22.14;79.97;97707.33;604187;235;65045;-76
2022/07/19 06:16:50;;;;;;;;;;;;;;;22.15;80.16;97704.40;604158;235;67266;-75
2022/07/19 06:19:18;;;;;;;;;;;;;;;22.15;80.32;97700.89;604267;235;66863;-75
2022/07/19 06:21:46;;;;;;;;;;;;;;;22.16;80.22;97699.84;602495;233;65930;-76
2022/07/19 06:24:13;;;;;;;;;;;;;;;22.16;80.13;97700.64;601551;233;64861;-76
2022/07/19 06:26:41;;;;;;;;;;;;;;;22.16;80.26;97695.29;605632;233;64876;-76
2022/07/19 06:29:08;;;;;;;;;;;;;;;22.17;80.20;97698.77;604384;233;63775;-76
2022/07/19 06:31:36;;;;;;;;;;;;;;;22.16;80.23;97692.61;602638;235;66810;-74
2022/07/19 06:34:03;;;;;;;;;;;;;;;22.17;80.27;97690.73;604116;235;65576;-76
2022/07/19 06:36:32;;;;;;;;;;;;;;;22.17;79.44;97690.73;604205;235;64891;-77
2022/07/19 06:38:59;;;;;;;;;;;;;;;22.19;80.05;97699.34;604274;235;64911;-77
2022/07/19 06:41:27;;;;;;;;;;;;;;;22.18;80.43;97692.39;604260;235;64852;-75
2022/07/19 06:43:54;;;;;;;;;;;;;;;22.19;80.69;97693.19;604151;235;64918;-75
2022/07/19 06:46:22;;;;;;;;;;;;;;;22.18;80.88;97692.39;604165;235;64804;-74
2022/07/19 06:48:50;;;;;;;;;;;;;;;22.19;81.01;97691.31;604210;235;64792;-78
2022/07/19 06:51:17;;;;;;;;;;;;;;;22.19;76.13;97694.00;604283;235;62734;-76
2022/07/19 06:53:45;;;;;;;;;;;;;;;22.20;73.86;97692.91;604158;235;67955;-74
2022/07/19 06:56:13;;;;;;;;;;;;;;;22.21;76.57;97691.87;602446;235;66633;-75
2022/07/19 06:58:40;;;;;;;;;;;;;;;22.22;77.79;97687.31;601023;236;64897;-77
2022/07/19 07:01:08;;;;;;;;;;;;;;;22.21;78.50;97691.87;601009;236;64994;-74
2022/07/19 07:03:36;;;;;;;;;;;;;;;22.22;79.59;97690.79;600999;236;65111;-75
2022/07/19 07:06:03;;;;;;;;;;;;;;;22.22;80.17;97695.34;601027;236;65491;-70
2022/07/19 07:08:31;;;;;;;;;;;;;;;22.21;80.61;97685.68;601090;236;67001;-75
2022/07/19 07:10:58;;;;;;;;;;;;;;;22.21;80.81;97683.84;601017;236;66948;-77
2022/07/19 07:13:26;;;;;;;;;;;;;;;22.20;80.88;97684.88;601005;236;65085;-75
2022/07/19 07:15:53;;;;;;;;;;;;;;;22.20;80.96;97682.20;601090;236;68011;-76
2022/07/19 07:18:21;;;;;;;;;;;;;;;22.20;80.95;97684.88;601024;236;67491;-73
2022/07/19 07:20:48;;;;;;;;;;;;;;;22.20;81.14;97676.85;601111;236;64833;-74
2022/07/19 07:23:16;;;;;;;;;;;;;;;22.20;81.19;97679.53;600922;236;66568;-74
2022/07/19 07:25:44;;;;;;;;;;;;;;;22.20;81.28;97679.53;600385;236;67599;-75
2022/07/19 07:28:11;;;;;;;;;;;;;;;22.21;81.26;97683.84;600844;236;62804;-75
2022/07/19 07:30:39;;;;;;;;;;;;;;;22.21;81.25;97675.80;600991;236;65778;-77
2022/07/19 07:33:06;;;;;;;;;;;;;;;22.21;78.69;97681.16;601016;236;64580;-76
2022/07/19 07:35:34;;;;;;;;;;;;;;;22.21;80.33;97678.48;601036;236;64846;-76
2022/07/19 07:38:03;;;;;;;;;;;;;;;22.22;80.21;97688.11;601001;236;66989;-76
2022/07/19 07:40:31;;;;;;;;;;;;;;;22.23;80.48;97684.36;601006;236;64383;-75
2022/07/19 07:42:58;;;;;;;;;;;;;;;22.23;80.85;97675.52;601134;236;63699;-73
2022/07/19 07:45:26;;;;;;;;;;;;;;;22.22;80.54;97674.72;600032;236;64655;-76
2022/07/19 07:47:53;;;;;;;;;;;;;;;22.23;75.42;97681.67;599824;236;65616;-77
2022/07/19 07:50:21;;;;;;;;;;;;;;;22.26;80.09;97681.17;599857;236;62938;-76
2022/07/19 07:52:48;;;;;;;;;;;;;;;22.24;80.23;97685.19;600081;236;67924;-76
2022/07/19 07:55:16;;;;;;;;;;;;;;;22.22;79.88;97687.31;600621;235;66899;-75
2022/07/19 07:57:44;;;;;;;;;;;;;;;22.22;79.93;97682.75;598641;237;64951;-73
2022/07/19 08:00:13;;;;;;;;;;;;;;;22.23;80.44;97683.55;598574;237;64789;-74
2022/07/19 08:02:43;;;;;;;;;;;;;;;22.22;80.60;97685.44;598695;237;67105;-76
2022/07/19 08:05:10;;;;;;;;;;;;;;;22.22;80.70;97682.75;598695;237;66150;-74
2022/07/19 08:07:38;;;;;;;;;;;;;;;22.22;80.68;97687.31;598558;237;66905;-75
2022/07/19 08:10:08;;;;;;;;;;;;;;;22.22;80.69;97685.44;598691;237;64709;-76
2022/07/19 08:12:35;;;;;;;;;;;;;;;22.22;80.61;97682.75;598679;237;65042;-70
2022/07/19 08:15:03;;;;;;;;;;;;;;;22.23;76.87;97683.55;598628;237;64953;-69
2022/07/19 08:17:30;;;;;;;;;;;;;;;22.24;75.82;97680.62;598662;237;65174;-69
2022/07/19 08:19:59;;;;;;;;;;;;;;;22.24;76.87;97679.83;598716;237;64947;-69
2022/07/19 08:22:28;;;;;;;;;;;;;;;22.24;77.94;97671.80;598676;237;68773;-67
2022/07/19 08:24:55;;;;;;;;;;;;;;;22.23;78.45;97672.84;598739;237;66895;-68
2022/07/19 08:27:23;;;;;;;;;;;;;;;22.23;78.78;97664.81;598696;237;64872;-68
2022/07/19 08:29:51;;;;;;;;;;;;;;;22.22;78.89;97672.05;598618;237;64886;-68
2022/07/19 08:32:18;;;;;;;;;;;;;;;22.24;79.50;97671.80;598730;237;66652;-69
2022/07/19 08:34:46;;;;;;;;;;;;;;;22.24;79.86;97677.16;598732;237;66189;-69
2022/07/19 08:37:13;;;;;;;;;;;;;;;22.23;80.10;97673.64;598655;237;66941;-69
2022/07/19 08:39:41;;;;;;;;;;;;;;;22.24;80.36;97679.83;598717;236;66842;-68
2022/07/19 08:42:09;;;;;;;;;;;;;;;22.23;80.43;97673.64;598679;237;64863;-67
2022/07/19 08:44:39;;;;;;;;;;;;;;;22.22;80.39;97674.72;598608;237;66961;-68
2022/07/19 08:47:07;;;;;;;;;;;;;;;22.23;80.33;97673.64;598733;236;65499;-69
2022/07/19 08:49:36;;;;;;;;;;;;;;;22.22;80.13;97677.40;598665;237;65075;-69
2022/07/19 08:52:04;;;;;;;;;;;;;;;22.23;80.08;97667.49;598665;237;67676;-69
2022/07/19 08:54:33;;;;;;;;;;;;;;;22.22;80.12;97666.69;598678;237;67509;-69
2022/07/19 08:59:46;;;;;;;;;;;;;;;22.23;80.14;97673.64;598638;237;67770;-67
2022/07/19 09:02:14;;;;;;;;;;;;;;;22.23;80.10;97681.67;598771;237;64429;-68
2022/07/19 09:04:42;;;;;;;;;;;;;;;22.22;80.06;97669.37;598706;237;62892;-68
2022/07/19 09:07:10;;;;;;;;;;;;;;;22.22;79.94;97674.72;591510;237;64544;-68
2022/07/19 09:09:37;;;;;;;;;;;;;;;22.23;80.05;97678.20;598719;237;66683;-68
2022/07/19 09:12:06;;;;;;;;;;;;;;;22.23;80.07;97670.97;598641;237;65225;-68
2022/07/19 09:14:34;;;;;;;;;;;;;;;22.24;79.87;97679.83;598693;237;66893;-68
2022/07/19 09:17:05;;;;;;;;;;;;;;;22.23;80.05;97673.64;598684;237;67541;-68
2022/07/19 09:19:34;;;;;;;;;;;;;;;22.23;79.89;97672.84;598660;237;65129;-69
2022/07/19 09:22:03;;;;;;;;;;;;;;;22.23;79.96;97673.64;598712;237;64584;-68
2022/07/19 09:24:32;;;;;;;;;;;;;;;22.23;79.98;97672.84;598765;237;65311;-67
2022/07/19 09:27:01;;;;;;;;;;;;;;;22.23;79.94;97672.84;598608;236;64966;-67
2022/07/19 09:29:30;;;;;;;;;;;;;;;22.23;79.93;97667.49;598739;235;67605;-67
2022/07/19 09:32:02;;;;;;;;;;;;;;;22.23;79.95;97672.84;598584;237;65827;-67
2022/07/19 09:34:33;;;;;;;;;;;;;;;22.23;79.95;97676.33;598593;237;63790;-68
2022/07/19 09:37:11;;;;;;;;;;;;;;;22.23;79.98;97668.29;598691;237;64538;-67
2022/07/19 09:39:41;;;;;;;;;;;;;;;22.22;79.01;97664.02;598541;237;64559;-69
2022/07/19 09:42:09;;;;;;;;;;;;;;;22.26;78.88;97673.15;598725;237;65109;-72
2022/07/19 09:44:37;;;;;;;;;;;;;;;22.27;79.09;97672.06;598671;237;65473;-71
2022/07/19 09:47:04;;;;;;;;;;;;;;;22.27;80.06;97661.36;598655;237;66681;-71
2022/07/19 09:49:32;;;;;;;;;;;;;;;22.26;80.55;97667.80;598705;237;65085;-70
2022/07/19 09:52:01;;;;;;;;;;;;;;;22.26;80.58;97662.44;598644;237;64260;-70
2022/07/19 09:54:31;;;;;;;;;;;;;;;22.25;80.67;97663.48;598649;237;67598;-69
2022/07/19 09:56:59;;;;;;;;;;;;;;;22.26;80.72;97672.31;598730;235;66063;-69
2022/07/19 09:59:27;;;;;;;;;;;;;;;22.25;80.72;97666.16;598670;237;67185;-69
2022/07/19 10:01:56;;;;;;;;;;;;;;;22.26;80.70;97657.08;598501;237;65479;-69
2022/07/19 10:04:25;;;;;;;;;;;;;;;22.26;80.53;97657.08;598656;237;64788;-70
2022/07/19 10:06:54;;;;;;;;;;;;;;;22.26;80.26;97657.08;598710;237;65496;-69
2022/07/19 10:09:22;;;;;;;;;;;;;;;22.27;80.08;97664.03;598700;237;66819;-70
2022/07/19 10:11:51;;;;;;;;;;;;;;;22.27;79.92;97641.81;598678;237;63137;-69
2022/07/19 10:14:19;;;;;;;;;;;;;;;22.27;79.83;97649.84;598726;237;66892;-70
2022/07/19 10:16:51;;;;;;;;;;;;;;;22.28;79.89;97648.77;598615;237;66695;-69
2022/07/19 10:19:20;;;;;;;;;;;;;;;22.27;80.02;97650.64;598705;237;64633;-68
2022/07/19 10:21:48;;;;;;;;;;;;;;;22.27;80.09;97637.27;598651;237;64554;-70
2022/07/19 10:24:17;;;;;;;;;;;;;;;22.28;80.21;97638.86;598586;236;66787;-70
2022/07/19 10:26:45;;;;;;;;;;;;;;;22.27;80.31;97634.58;597580;237;64981;-69
2022/07/19 10:29:16;;;;;;;;;;;;;;;22.27;80.35;97634.58;598677;237;64639;-69
2022/07/19 10:31:45;;;;;;;;;;;;;;;22.27;80.42;97636.46;598522;237;66745;-70
2022/07/19 10:34:14;;;;;;;;;;;;;;;22.27;80.53;97631.11;597809;237;65098;-69
2022/07/19 10:36:51;;;;;;;;;;;;;;;22.27;80.61;97626.55;598350;237;64572;-69
2022/07/19 10:39:20;;;;;;;;;;;;;;;22.28;80.62;97624.67;598467;237;64344;-69
2022/07/19 10:42:05;;;;;;;;;;;;;;;22.27;80.59;97625.75;598634;237;62853;-68
2022/07/19 10:44:34;;;;;;;;;;;;;;;22.27;80.55;97626.55;598659;237;66864;-68
2022/07/19 10:47:01;;;;;;;;;;;;;;;22.27;80.50;97621.20;598670;237;66919;-68
2022/07/19 10:49:33;;;;;;;;;;;;;;;22.27;80.60;97620.40;598684;237;62829;-68
2022/07/19 10:52:02;;;;;;;;;;;;;;;22.27;80.64;97615.84;597274;237;66829;-68
2022/07/19 10:54:31;;;;;;;;;;;;;;;22.32;76.92;97617.73;597558;237;67484;-69
2022/07/19 10:56:59;;;;;;;;;;;;;;;22.35;79.45;97623.36;600706;235;62871;-68
2022/07/19 10:59:32;;;;;;;;;;;;;;;22.35;80.05;97614.52;601017;236;66775;-68
2022/07/19 11:02:03;;;;;;;;;;;;;;;22.34;79.62;97608.37;600870;236;66597;-73
2022/07/19 11:04:32;;;;;;;;;;;;;;;22.34;79.44;97600.34;601016;236;65070;-74
2022/07/19 11:07:12;;;;;;;;;;;;;;;22.35;79.43;97585.87;600943;236;65345;-74
2022/07/19 11:09:41;;;;;;;;;;;;;;;22.36;79.59;97597.38;600266;236;66689;-76
2022/07/19 11:12:10;;;;;;;;;;;;;;;22.32;79.44;97602.47;600694;236;62812;-74
2022/07/19 11:14:39;;;;;;;;;;;;;;;22.31;79.43;97590.13;599218;236;64164;-74
2022/07/19 11:17:06;;;;;;;;;;;;;;;22.29;79.41;97581.58;600882;236;66699;-72
2022/07/19 11:19:34;;;;;;;;;;;;;;;22.29;79.33;97586.11;601099;236;63118;-73
2022/07/19 11:22:02;;;;;;;;;;;;;;;22.28;79.64;97590.66;601016;236;66768;-73
2022/07/19 11:24:29;;;;;;;;;;;;;;;22.28;79.49;97585.30;601073;236;66637;-75
2022/07/19 11:26:58;;;;;;;;;;;;;;;22.31;77.50;97582.09;601042;236;64880;-73
2022/07/19 11:29:26;;;;;;;;;;;;;;;22.33;79.47;97576.48;600880;235;67603;-75
2022/07/19 11:31:56;;;;;;;;;;;;;;;22.33;73.54;97571.93;601026;236;66438;-75
2022/07/19 11:34:22;;;;;;;;;;;;;;;22.36;78.34;97575.95;600995;235;66029;-74
2022/07/19 11:36:59;;;;;;;;;;;;;;;22.33;79.25;97569.25;601011;236;67542;-73
2022/07/19 11:39:26;;;;;;;;;;;;;;;22.32;79.90;97573.02;601101;236;66470;-75
2022/07/19 11:41:54;;;;;;;;;;;;;;;22.32;79.46;97572.22;601023;236;62804;-75
2022/07/19 11:44:21;;;;;;;;;;;;;;;22.29;79.18;97565.52;601118;236;64237;-75
2022/07/19 11:46:49;;;;;;;;;;;;;;;22.29;79.09;97562.84;601094;236;64106;-75
2022/07/19 11:49:17;;;;;;;;;;;;;;;22.29;79.06;97553.98;601066;236;64850;-75
2022/07/19 11:51:45;;;;;;;;;;;;;;;22.29;79.44;97554.80;601083;236;64432;-75
2022/07/19 11:54:12;;;;;;;;;;;;;;;22.29;79.57;97557.48;600980;236;64024;-73
2022/07/19 11:56:40;;;;;;;;;;;;;;;22.29;79.75;97560.16;599222;235;64739;-71
2022/07/19 11:59:08;;;;;;;;;;;;;;;22.28;79.55;97555.86;598546;237;66729;-75
2022/07/19 12:01:37;;;;;;;;;;;;;;;22.29;79.59;97548.63;598670;237;67401;-75
2022/07/19 12:04:06;;;;;;;;;;;;;;;22.28;79.72;97550.50;598634;237;65528;-74
2022/07/19 12:06:41;;;;;;;;;;;;;;;22.28;79.80;97547.83;598695;237;66902;-70
2022/07/19 12:09:10;;;;;;;;;;;;;;;22.29;79.75;97554.80;598645;235;66901;-70
2022/07/19 12:11:40;;;;;;;;;;;;;;;22.29;77.64;97551.30;598708;237;62955;-72
2022/07/19 12:14:19;;;;;;;;;;;;;;;22.29;78.91;97548.63;598687;237;66986;-74
2022/07/19 12:16:47;;;;;;;;;;;;;;;22.29;78.86;97544.09;593375;237;66648;-74
2022/07/19 12:19:19;;;;;;;;;;;;;;;22.29;79.87;97544.09;598728;237;64872;-75
2022/07/19 12:21:47;;;;;;;;;;;;;;;22.29;79.94;97543.27;598657;235;44628;-74
2022/07/19 12:24:19;;;;;;;;;;;;;;;22.28;79.90;97547.02;598623;237;64764;-74
2022/07/19 12:26:54;;;;;;;;;;;;;;;22.27;79.92;97540.88;598703;237;62817;-69
2022/07/19 12:29:23;;;;;;;;;;;;;;;22.27;79.57;97538.20;598638;237;67169;-74
2022/07/19 12:31:52;;;;;;;;;;;;;;;22.27;79.15;97534.72;598599;237;66890;-74
2022/07/19 12:34:20;;;;;;;;;;;;;;;22.26;78.77;97527.73;598586;237;64081;-75
2022/07/19 12:36:48;;;;;;;;;;;;;;;22.27;78.69;97535.52;598637;235;64624;-74
2022/07/19 12:39:27;;;;;;;;;;;;;;;22.27;78.72;97524.81;598681;237;66624;-73
2022/07/19 12:41:56;;;;;;;;;;;;;;;22.27;78.57;97532.84;598664;237;66038;-73
2022/07/19 12:44:24;;;;;;;;;;;;;;;22.27;78.67;97516.78;598578;237;68065;-73
2022/07/19 12:46:51;;;;;;;;;;;;;;;22.27;78.66;97519.45;598487;237;67862;-74
2022/07/19 12:49:19;;;;;;;;;;;;;;;22.27;78.56;97515.98;598638;237;64684;-75
2022/07/19 12:51:47;;;;;;;;;;;;;;;22.28;78.61;97513.02;598564;237;67039;-75
2022/07/19 12:54:14;;;;;;;;;;;;;;;22.28;78.63;97518.38;598668;235;67151;-73